Terminal Aerodrome Forecast
Issued by NWS Bismarck, ND

Home | Current Version | Previous Version | Text Only | Print | Product List | Glossary Off
Versions: 1 2 3 4 5 6 7 8 9 10 11 12 13 14 15 16 17

000
FTUS43 KBIS 201124
TAFBIS
TAF
KBIS 201124Z 2012/2112 32008KT 5SM -SN OVC045
     FM201400 31005KT P6SM VCSH BKN045
     FM201700 30010G18KT P6SM BKN070
     FM210100 27006KT P6SM SCT200=

USA.gov is the U.S. government's official web portal to all federal, state and local government web resources and services.